Dades meteomassalio
Diari Summary for Marc 20, 2017 Units:  Metric    English   Both
« Previous Day
Next Day »
Diari Semanal Mensual Anual Personalitzat
  Maxima: Minima: Mijana:
Temperatura: 22.9 °C 4.7 °C 13.3 °C
Rosada: 10.3 °C 3.3 °C 7 °C
Humitat: 91 % 41 % 69 %
Velocitat del vent: 14.8 km/h 0.0 km/h 1.4 km/h
Racha vent: 14.8 km/h - -
Vent:- - SSW
Pressio: 1016.5 hPa 1012.1 hPa -
Pluja: 0.0 mm    
Historical Graphs
 
 
Tabular Data for Marc 20, 2017
Time Temperature Dew Point Pressure Wind Wind Speed Wind Gust Humidity Rainfall Rate (Hourly) solar Conditions
00:00 8.9 °C 5.8 °C 1016.1 hPa Calm     81 % 0.0 mm 0.0 W/m2 CLR
00:05 8.8 °C 5.7 °C 1016.1 hPa Calm     81 % 0.0 mm 0.0 W/m2 CLR
00:10 8.6 °C 5.6 °C 1016.1 hPa Calm     81 % 0.0 mm 0.0 W/m2 CLR
00:15 8.3 °C 5.3 °C 1016.1 hPa Calm     81 % 0.0 mm 0.0 W/m2 CLR
00:20 8.2 °C 5.3 °C 1016.1 hPa Calm     82 % 0.0 mm 0.0 W/m2 CLR
00:25 8.1 °C 5.3 °C 1016.1 hPa Calm     83 % 0.0 mm 0.0 W/m2 CLR
00:30 7.9 °C 5.2 °C 1016.1 hPa Calm     83 % 0.0 mm 0.0 W/m2 CLR
00:35 7.8 °C 5.3 °C 1015.8 hPa Calm     84 % 0.0 mm 0.0 W/m2 CLR
00:40 7.8 °C 5.3 °C 1015.8 hPa Calm     84 % 0.0 mm 0.0 W/m2 CLR
00:45 7.8 °C 5.2 °C 1016.1 hPa Calm     84 % 0.0 mm 0.0 W/m2 CLR
00:50 7.7 °C 5.2 °C 1016.1 hPa Calm     84 % 0.0 mm 0.0 W/m2 CLR
00:55 7.6 °C 5.1 °C 1016.1 hPa Calm     84 % 0.0 mm 0.0 W/m2 CLR
01:00 7.4 °C 5.1 °C 1016.1 hPa Calm     85 % 0.0 mm 0.0 W/m2 CLR
01:05 7.3 °C 5.0 °C 1016.1 hPa Calm     85 % 0.0 mm 0.0 W/m2 CLR
01:10 7.3 °C 5.0 °C 1015.8 hPa Calm     85 % 0.0 mm 0.0 W/m2 CLR
01:15 7.3 °C 5.1 °C 1015.8 hPa Calm     86 % 0.0 mm 0.0 W/m2 CLR
01:20 7.5 °C 5.3 °C 1016.1 hPa Calm     86 % 0.0 mm 0.0 W/m2 CLR
01:25 7.6 °C 5.1 °C 1016.1 hPa Calm     84 % 0.0 mm 0.0 W/m2 CLR
01:30 7.6 °C 5.2 °C 1016.1 hPa Calm     85 % 0.0 mm 0.0 W/m2 CLR
01:35 7.5 °C 5.2 °C 1016.1 hPa Calm     85 % 0.0 mm 0.0 W/m2 CLR
01:40 7.4 °C 5.1 °C 1016.1 hPa Calm     85 % 0.0 mm 0.0 W/m2 CLR
01:45 7.3 °C 4.9 °C 1016.1 hPa Calm     85 % 0.0 mm 0.0 W/m2 CLR
01:50 7.2 °C 4.8 °C 1016.1 hPa Calm     85 % 0.0 mm 0.0 W/m2 CLR
01:55 7.1 °C 4.9 °C 1015.8 hPa Calm     86 % 0.0 mm 0.0 W/m2 CLR
02:00 7.1 °C 4.9 °C 1015.8 hPa Calm     86 % 0.0 mm 0.0 W/m2 CLR
02:05 7.2 °C 5.1 °C 1015.8 hPa Calm     86 % 0.0 mm 0.0 W/m2 CLR
02:10 7.3 °C 5.1 °C 1015.8 hPa Calm     86 % 0.0 mm 0.0 W/m2 CLR
02:15 7.3 °C 5.2 °C 1015.8 hPa Calm     86 % 0.0 mm 0.0 W/m2 CLR
02:20 7.3 °C 5.0 °C 1015.8 hPa Calm     85 % 0.0 mm 0.0 W/m2 CLR
02:25 7.3 °C 5.0 °C 1015.8 hPa Calm     85 % 0.0 mm 0.0 W/m2 CLR
02:30 7.3 °C 4.9 °C 1015.8 hPa Calm     85 % 0.0 mm 0.0 W/m2 CLR
02:35 7.3 °C 4.9 °C 1015.8 hPa Calm     85 % 0.0 mm 0.0 W/m2 CLR
02:40 7.2 °C 4.8 °C 1015.8 hPa Calm     85 % 0.0 mm 0.0 W/m2 CLR
02:45 7.3 °C 5.1 °C 1015.8 hPa Calm     86 % 0.0 mm 0.0 W/m2 CLR
02:50 7.3 °C 5.2 °C 1015.8 hPa Calm     86 % 0.0 mm 0.0 W/m2 CLR
02:55 7.3 °C 5.2 °C 1015.8 hPa Calm     86 % 0.0 mm 0.0 W/m2 CLR
03:00 7.3 °C 5.0 °C 1015.8 hPa Calm     85 % 0.0 mm 0.0 W/m2 CLR
03:06 7.3 °C 4.9 °C 1015.8 hPa Calm     85 % 0.0 mm 0.0 W/m2 CLR
03:11 7.2 °C 4.9 °C 1015.8 hPa Calm     85 % 0.0 mm 0.0 W/m2 CLR
03:16 7.1 °C 4.7 °C 1015.8 hPa Calm     85 % 0.0 mm 0.0 W/m2 CLR
03:21 7.0 °C 4.8 °C 1015.5 hPa Calm     86 % 0.0 mm 0.0 W/m2 CLR
03:26 7.0 °C 4.8 °C 1015.8 hPa Calm     86 % 0.0 mm 0.0 W/m2 CLR
03:31 6.9 °C 4.8 °C 1015.8 hPa Calm     86 % 0.0 mm 0.0 W/m2 CLR
03:36 6.8 °C 4.7 °C 1015.5 hPa Calm     86 % 0.0 mm 0.0 W/m2 CLR
03:41 6.7 °C 4.6 °C 1015.5 hPa Calm     86 % 0.0 mm 0.0 W/m2 CLR
03:46 6.6 °C 4.6 °C 1015.5 hPa Calm     87 % 0.0 mm 0.0 W/m2 CLR
03:51 6.6 °C 4.6 °C 1015.5 hPa Calm     87 % 0.0 mm 0.0 W/m2 CLR
03:56 6.4 °C 4.4 °C 1015.5 hPa Calm     87 % 0.0 mm 0.0 W/m2 CLR
04:01 6.4 °C 4.6 °C 1015.5 hPa Calm     88 % 0.0 mm 0.0 W/m2 CLR
04:06 6.4 °C 4.6 °C 1015.5 hPa Calm     88 % 0.0 mm 0.0 W/m2 CLR
04:11 6.3 °C 4.5 °C 1015.8 hPa Calm     88 % 0.0 mm 0.0 W/m2 CLR
04:16 6.2 °C 4.4 °C 1015.5 hPa Calm     88 % 0.0 mm 0.0 W/m2 CLR
04:21 6.2 °C 4.3 °C 1015.5 hPa Calm     88 % 0.0 mm 0.0 W/m2 CLR
04:26 6.2 °C 4.3 °C 1015.5 hPa Calm     88 % 0.0 mm 0.0 W/m2 CLR
04:31 6.1 °C 4.2 °C 1015.5 hPa Calm     88 % 0.0 mm 0.0 W/m2 CLR
04:36 6.0 °C 4.2 °C 1015.5 hPa Calm     88 % 0.0 mm 0.0 W/m2 CLR
04:41 5.9 °C 4.1 °C 1015.5 hPa Calm     88 % 0.0 mm 0.0 W/m2 CLR
04:46 5.9 °C 4.2 °C 1015.5 hPa Calm     89 % 0.0 mm 0.0 W/m2 CLR
04:51 5.9 °C 4.2 °C 1015.5 hPa Calm     89 % 0.0 mm 0.0 W/m2 CLR
04:56 5.8 °C 4.2 °C 1015.5 hPa Calm     89 % 0.0 mm 0.0 W/m2 CLR
05:01 5.9 °C 4.2 °C 1015.5 hPa Calm     89 % 0.0 mm 0.0 W/m2 CLR
05:06 5.8 °C 4.1 °C 1015.8 hPa Calm     89 % 0.0 mm 0.0 W/m2 CLR
05:11 5.7 °C 4.0 °C 1015.8 hPa Calm     89 % 0.0 mm 0.0 W/m2 CLR
05:16 5.6 °C 3.9 °C 1015.8 hPa Calm     89 % 0.0 mm 0.0 W/m2 CLR
05:21 5.4 °C 3.8 °C 1015.8 hPa Calm     89 % 0.0 mm 0.0 W/m2 CLR
05:26 5.4 °C 3.9 °C 1015.8 hPa Calm     90 % 0.0 mm 0.0 W/m2 CLR
05:31 5.3 °C 3.8 °C 1015.8 hPa Calm     90 % 0.0 mm 0.0 W/m2 CLR
05:36 5.3 °C 3.8 °C 1015.8 hPa Calm     90 % 0.0 mm 0.0 W/m2 CLR
05:41 5.4 °C 3.9 °C 1015.8 hPa Calm     90 % 0.0 mm 0.0 W/m2 CLR
05:46 5.3 °C 3.8 °C 1015.8 hPa Calm     90 % 0.0 mm 0.0 W/m2 CLR
05:51 5.3 °C 3.8 °C 1015.8 hPa Calm     90 % 0.0 mm 0.0 W/m2 CLR
05:56 5.2 °C 3.7 °C 1015.8 hPa Calm     90 % 0.0 mm 0.0 W/m2 CLR
06:01 5.1 °C 3.6 °C 1016.1 hPa Calm     90 % 0.0 mm 0.0 W/m2 CLR
06:06 5.1 °C 3.6 °C 1015.8 hPa Calm     90 % 0.0 mm 0.0 W/m2 CLR
06:11 5.0 °C 3.5 °C 1016.1 hPa Calm     90 % 0.0 mm 0.0 W/m2 CLR
06:16 5.1 °C 3.7 °C 1015.8 hPa Calm     91 % 0.0 mm 0.0 W/m2 CLR
06:21 5.1 °C 3.7 °C 1015.8 hPa Calm     91 % 0.0 mm 0.0 W/m2 CLR
06:26 5.1 °C 3.7 °C 1015.8 hPa Calm     91 % 0.0 mm 0.0 W/m2 CLR
06:31 5.1 °C 3.7 °C 1015.8 hPa Calm     91 % 0.0 mm 0.0 W/m2 CLR
06:36 5.1 °C 3.7 °C 1015.8 hPa Calm     91 % 0.0 mm 0.0 W/m2 CLR
06:41 5.1 °C 3.7 °C 1016.1 hPa Calm     91 % 0.0 mm 0.0 W/m2 CLR
06:46 4.9 °C 3.6 °C 1015.8 hPa Calm     91 % 0.0 mm 0.0 W/m2 CLR
06:51 4.8 °C 3.3 °C 1015.8 hPa Calm     90 % 0.0 mm 0.0 W/m2 CLR
06:56 4.8 °C 3.4 °C 1016.1 hPa Calm     91 % 0.0 mm 0.0 W/m2 CLR
07:01 4.8 °C 3.4 °C 1016.1 hPa Calm     91 % 0.0 mm 0.0 W/m2 OVC
07:06 4.8 °C 3.4 °C 1016.1 hPa Calm     91 % 0.0 mm 5.0 W/m2 OVC
07:11 4.7 °C 3.4 °C 1016.1 hPa Calm     91 % 0.0 mm 9.0 W/m2 BKN
07:16 4.7 °C 3.3 °C 1016.1 hPa Calm     91 % 0.0 mm 12.0 W/m2 BKN
07:21 4.7 °C 3.4 °C 1016.1 hPa Calm     91 % 0.0 mm 14.0 W/m2 BKN
07:26 4.8 °C 3.5 °C 1016.1 hPa Calm     91 % 0.0 mm 18.0 W/m2 BKN
07:31 4.9 °C 3.6 °C 1016.5 hPa Calm     91 % 0.0 mm 19.0 W/m2 BKN
07:36 5.1 °C 3.7 °C 1016.5 hPa Calm     91 % 0.0 mm 23.0 W/m2 BKN
07:41 5.1 °C 3.8 °C 1016.5 hPa Calm     91 % 0.0 mm 47.0 W/m2 BKN
07:46 5.3 °C 3.9 °C 1016.5 hPa Calm     91 % 0.0 mm 54.0 W/m2 SCT
07:51 5.3 °C 3.9 °C 1016.5 hPa Calm     91 % 0.0 mm 72.0 W/m2 FEW
07:56 5.4 °C 4.1 °C 1016.5 hPa Calm     91 % 0.0 mm 74.0 W/m2 FEW
08:01 5.7 °C 4.3 °C 1016.5 hPa Calm     91 % 0.0 mm 88.0 W/m2 FEW
08:06 6.1 °C 4.7 °C 1016.5 hPa Calm     91 % 0.0 mm 100.0 W/m2 FEW
08:11 6.6 °C 5.2 °C 1016.5 hPa Calm     91 % 0.0 mm 84.0 W/m2 CLR
08:16 6.9 °C 5.4 °C 1016.5 hPa Calm     90 % 0.0 mm 123.0 W/m2 CLR
08:21 7.1 °C 5.4 °C 1016.5 hPa Calm     89 % 0.0 mm 169.0 W/m2 CLR
08:26 7.3 °C 5.4 °C 1016.5 hPa Calm     88 % 0.0 mm 185.0 W/m2 CLR
08:31 7.6 °C 5.7 °C 1016.5 hPa Calm     88 % 0.0 mm 202.0 W/m2 CLR
08:36 8.1 °C 6.1 °C 1016.5 hPa Calm     87 % 0.0 mm 218.0 W/m2 CLR
08:41 8.6 °C 6.4 °C 1016.5 hPa Calm     86 % 0.0 mm 234.0 W/m2 CLR
08:46 9.1 °C 6.7 °C 1016.5 hPa Calm     85 % 0.0 mm 251.0 W/m2 CLR
08:51 9.5 °C 6.9 °C 1016.5 hPa Calm     84 % 0.0 mm 265.0 W/m2 CLR
08:56 10.0 °C 7.1 °C 1016.5 hPa Calm     82 % 0.0 mm 281.0 W/m2 CLR
09:01 10.4 °C 7.3 °C 1016.5 hPa Calm     81 % 0.0 mm 299.0 W/m2 CLR
09:07 11.1 °C 7.6 °C 1016.5 hPa Calm     79 % 0.0 mm 322.0 W/m2 CLR
09:12 11.6 °C 7.7 °C 1016.5 hPa Calm     77 % 0.0 mm 336.0 W/m2 CLR
09:17 11.9 °C 7.6 °C 1016.1 hPa Calm     75 % 0.0 mm 355.0 W/m2 CLR
09:27 12.2 °C 7.7 °C 1016.1 hPa Calm     74 % 0.0 mm 380.0 W/m2 CLR
09:32 12.3 °C 7.6 °C 1016.1 hPa Calm     73 % 0.0 mm 408.0 W/m2 CLR
09:37 12.6 °C 7.9 °C 1016.1 hPa Calm     73 % 0.0 mm 369.0 W/m2 CLR
09:42 12.8 °C 7.8 °C 1016.1 hPa Calm     72 % 0.0 mm 427.0 W/m2 CLR
09:47 13.1 °C 8.2 °C 1016.1 hPa Calm     72 % 0.0 mm 441.0 W/m2 CLR
09:52 13.5 °C 8.3 °C 1015.8 hPa Calm     71 % 0.0 mm 452.0 W/m2 CLR
09:57 13.8 °C 8.2 °C 1016.1 hPa Calm     69 % 0.0 mm 464.0 W/m2 CLR
10:02 14.1 °C 8.3 °C 1016.1 hPa Calm     68 % 0.0 mm 478.0 W/m2 CLR
10:07 14.3 °C 8.3 °C 1015.8 hPa Calm     67 % 0.0 mm 492.0 W/m2 CLR
10:12 14.8 °C 9.0 °C 1015.8 hPa Calm     68 % 0.0 mm 506.0 W/m2 CLR
10:17 15.5 °C 8.7 °C 1015.8 hPa Calm     64 % 0.0 mm 520.0 W/m2 CLR
10:22 15.8 °C 8.6 °C 1015.8 hPa Calm     62 % 0.0 mm 533.0 W/m2 CLR
10:27 16.1 °C 9.0 °C 1015.8 hPa Calm     63 % 0.0 mm 545.0 W/m2 CLR
10:32 16.4 °C 8.8 °C 1015.8 hPa Calm     61 % 0.0 mm 555.0 W/m2 CLR
10:37 16.6 °C 8.6 °C 1015.8 hPa Calm     59 % 0.0 mm 568.0 W/m2 CLR
10:42 16.7 °C 8.9 °C 1015.5 hPa Calm     60 % 0.0 mm 580.0 W/m2 CLR
10:47 16.9 °C 8.9 °C 1015.5 hPa NNW 1.9 km/h   59 % 0.0 mm 592.0 W/m2 CLR
10:52 17.1 °C 8.7 °C 1015.5 hPa NNW 7.4 km/h 7.4 km/h 58 % 0.0 mm 601.0 W/m2 CLR
10:57 17.0 °C 8.7 °C 1015.5 hPa WNW 5.6 km/h 5.6 km/h 58 % 0.0 mm 612.0 W/m2 CLR
11:02 16.9 °C 8.6 °C 1015.5 hPa NNW 7.4 km/h 7.4 km/h 58 % 0.0 mm 624.0 W/m2 CLR
11:07 17.0 °C 8.4 °C 1015.5 hPa Calm     57 % 0.0 mm 631.0 W/m2 CLR
11:12 17.2 °C 8.6 °C 1015.5 hPa NNE 5.6 km/h 5.6 km/h 57 % 0.0 mm 635.0 W/m2 CLR
11:17 17.5 °C 8.6 °C 1015.1 hPa West 5.6 km/h 5.6 km/h 56 % 0.0 mm 652.0 W/m2 CLR
11:22 17.4 °C 8.6 °C 1015.1 hPa NNE 5.6 km/h 5.6 km/h 56 % 0.0 mm 652.0 W/m2 CLR
11:27 17.6 °C 9.2 °C 1015.1 hPa NNW 7.4 km/h 7.4 km/h 58 % 0.0 mm 671.0 W/m2 CLR
11:32 17.7 °C 8.6 °C 1015.1 hPa North 11.3 km/h 11.3 km/h 55 % 0.0 mm 684.0 W/m2 CLR
11:37 17.8 °C 8.6 °C 1015.1 hPa WNW 7.4 km/h 7.4 km/h 55 % 0.0 mm 694.0 W/m2 CLR
11:42 17.8 °C 8.4 °C 1015.1 hPa North 5.6 km/h 5.6 km/h 54 % 0.0 mm 701.0 W/m2 CLR
11:47 18.1 °C 8.6 °C 1015.1 hPa NW 11.3 km/h 11.3 km/h 54 % 0.0 mm 717.0 W/m2 CLR
11:52 18.0 °C 8.6 °C 1015.1 hPa Calm     54 % 0.0 mm 724.0 W/m2 CLR
11:57 18.3 °C 9.4 °C 1015.1 hPa North 5.6 km/h 5.6 km/h 56 % 0.0 mm 712.0 W/m2 CLR
12:02 18.4 °C 9.2 °C 1015.1 hPa WNW 11.1 km/h 11.1 km/h 55 % 0.0 mm 737.0 W/m2 CLR
12:07 18.6 °C 9.1 °C 1015.1 hPa NE 5.6 km/h 5.6 km/h 54 % 0.0 mm 737.0 W/m2 CLR
12:12 18.7 °C 9.2 °C 1014.8 hPa WNW 9.3 km/h   54 % 0.0 mm 740.0 W/m2 CLR
12:17 18.8 °C 9.0 °C 1014.8 hPa North 1.9 km/h   53 % 0.0 mm 733.0 W/m2 CLR
12:22 18.9 °C 9.1 °C 1014.8 hPa North 9.7 km/h 9.7 km/h 53 % 0.0 mm 737.0 W/m2 CLR
12:27 18.8 °C 9.3 °C 1014.8 hPa North 11.1 km/h 11.1 km/h 54 % 0.0 mm 742.0 W/m2 CLR
12:32 18.7 °C 8.7 °C 1014.8 hPa West 1.9 km/h   52 % 0.0 mm 744.0 W/m2 CLR
12:37 18.8 °C 9.3 °C 1014.4 hPa North 9.3 km/h 9.3 km/h 54 % 0.0 mm 745.0 W/m2 CLR
12:42 18.9 °C 9.7 °C 1014.4 hPa NW 5.6 km/h   55 % 0.0 mm 749.0 W/m2 CLR
12:47 18.9 °C 8.5 °C 1014.4 hPa Calm     51 % 0.0 mm 749.0 W/m2 CLR
12:52 19.0 °C 8.9 °C 1014.4 hPa NNE 5.6 km/h 5.6 km/h 52 % 0.0 mm 751.0 W/m2 CLR
12:57 19.3 °C 8.9 °C 1014.4 hPa Calm     51 % 0.0 mm 752.0 W/m2 CLR
13:02 19.5 °C 9.7 °C 1014.4 hPa NE 7.4 km/h 7.4 km/h 53 % 0.0 mm 754.0 W/m2 CLR
13:07 19.7 °C 9.3 °C 1014.4 hPa NE 11.1 km/h 11.1 km/h 51 % 0.0 mm 756.0 W/m2 CLR
13:12 19.8 °C 10.3 °C 1014.1 hPa NW 4.8 km/h 4.8 km/h 54 % 0.0 mm 754.0 W/m2 CLR
13:17 19.9 °C 9.4 °C 1014.1 hPa Calm     51 % 0.0 mm 756.0 W/m2 CLR
13:22 20.2 °C 10.1 °C 1014.1 hPa Calm     52 % 0.0 mm 754.0 W/m2 CLR
13:27 20.6 °C 10.1 °C 1014.1 hPa NNW 5.6 km/h   51 % 0.0 mm 751.0 W/m2 CLR
13:32 20.7 °C 9.9 °C 1014.1 hPa NE 3.7 km/h 3.7 km/h 50 % 0.0 mm 752.0 W/m2 CLR
13:37 20.8 °C 10.0 °C 1013.8 hPa NNW 6.4 km/h 6.4 km/h 50 % 0.0 mm 751.0 W/m2 CLR
13:43 20.6 °C 9.2 °C 1013.8 hPa NNW 13.0 km/h 13.0 km/h 48 % 0.0 mm 745.0 W/m2 CLR
13:48 20.4 °C 9.3 °C 1013.8 hPa Calm     49 % 0.0 mm 744.0 W/m2 CLR
13:53 20.3 °C 8.9 °C 1013.8 hPa NE 9.3 km/h 9.3 km/h 48 % 0.0 mm 738.0 W/m2 CLR
13:58 20.4 °C 9.0 °C 1013.8 hPa Calm     48 % 0.0 mm 737.0 W/m2 CLR
14:03 20.6 °C 9.8 °C 1013.4 hPa WNW 8.0 km/h 8.0 km/h 50 % 0.0 mm 731.0 W/m2 CLR
14:08 20.8 °C 9.4 °C 1013.4 hPa Calm     48 % 0.0 mm 724.0 W/m2 CLR
14:13 20.9 °C 9.8 °C 1013.4 hPa Calm     49 % 0.0 mm 721.0 W/m2 CLR
14:18 21.1 °C 9.7 °C 1013.4 hPa NNE 9.7 km/h 9.7 km/h 48 % 0.0 mm 714.0 W/m2 CLR
14:23 21.1 °C 9.3 °C 1013.4 hPa Calm     47 % 0.0 mm 710.0 W/m2 CLR
14:28 21.1 °C 9.1 °C 1013.1 hPa Calm     46 % 0.0 mm 703.0 W/m2 CLR
14:33 21.3 °C 8.9 °C 1013.1 hPa WSW 1.9 km/h 1.9 km/h 45 % 0.0 mm 698.0 W/m2 CLR
14:38 21.2 °C 8.8 °C 1013.1 hPa Calm     45 % 0.0 mm 693.0 W/m2 CLR
14:43 21.3 °C 8.8 °C 1013.1 hPa Calm     45 % 0.0 mm 686.0 W/m2 CLR
14:48 21.3 °C 9.2 °C 1013.1 hPa Calm     46 % 0.0 mm 673.0 W/m2 CLR
14:53 21.4 °C 9.0 °C 1013.1 hPa NNE 7.4 km/h 7.4 km/h 45 % 0.0 mm 668.0 W/m2 CLR
14:58 21.5 °C 9.1 °C 1012.8 hPa Calm     45 % 0.0 mm 661.0 W/m2 CLR
15:03 21.5 °C 9.1 °C 1012.8 hPa West 1.9 km/h 1.9 km/h 45 % 0.0 mm 652.0 W/m2 CLR
15:08 21.7 °C 9.6 °C 1012.8 hPa Calm     46 % 0.0 mm 640.0 W/m2 CLR
15:13 21.9 °C 9.1 °C 1012.8 hPa ENE 5.6 km/h 5.6 km/h 44 % 0.0 mm 631.0 W/m2 CLR
15:18 21.9 °C 9.4 °C 1012.8 hPa NNE 5.6 km/h 5.6 km/h 45 % 0.0 mm 624.0 W/m2 CLR
15:23 21.8 °C 8.7 °C 1012.8 hPa Calm     43 % 0.0 mm 615.0 W/m2 CLR
15:28 21.8 °C 9.1 °C 1012.8 hPa ENE 5.6 km/h 5.6 km/h 44 % 0.0 mm 606.0 W/m2 CLR
15:33 21.7 °C 8.6 °C 1012.8 hPa Calm     43 % 0.0 mm 598.0 W/m2 CLR
15:38 21.8 °C 8.7 °C 1012.4 hPa Calm     43 % 0.0 mm 591.0 W/m2 CLR
15:43 22.1 °C 8.6 °C 1012.8 hPa ENE 3.7 km/h 3.7 km/h 42 % 0.0 mm 587.0 W/m2 CLR
15:53 22.4 °C 9.2 °C 1012.4 hPa WNW 1.9 km/h   43 % 0.0 mm 468.0 W/m2 CLR
15:58 22.6 °C 9.1 °C 1012.4 hPa Calm     42 % 0.0 mm 529.0 W/m2 CLR
16:03 22.9 °C 8.9 °C 1012.4 hPa NNW 5.6 km/h 5.6 km/h 41 % 0.0 mm 543.0 W/m2 CLR
16:08 22.7 °C 9.8 °C 1012.4 hPa Calm     44 % 0.0 mm 455.0 W/m2 CLR
16:13 22.6 °C 9.0 °C 1012.4 hPa Calm     42 % 0.0 mm 425.0 W/m2 CLR
16:18 22.6 °C 8.6 °C 1012.4 hPa Calm     41 % 0.0 mm 473.0 W/m2 CLR
16:23 22.6 °C 8.6 °C 1012.4 hPa NNE 7.4 km/h 7.4 km/h 41 % 0.0 mm 446.0 W/m2 CLR
16:28 22.4 °C 8.5 °C 1012.4 hPa ENE 3.7 km/h 3.7 km/h 41 % 0.0 mm 462.0 W/m2 CLR
16:33 22.4 °C 8.9 °C 1012.1 hPa NE 5.6 km/h 5.6 km/h 42 % 0.0 mm 468.0 W/m2 CLR
16:38 22.6 °C 8.6 °C 1012.4 hPa NE 7.4 km/h 7.4 km/h 41 % 0.0 mm 446.0 W/m2 CLR
16:43 22.7 °C 9.1 °C 1012.1 hPa North 7.4 km/h 7.4 km/h 42 % 0.0 mm 403.0 W/m2 CLR
16:48 22.7 °C 8.8 °C 1012.1 hPa North 14.8 km/h 14.8 km/h 41 % 0.0 mm 369.0 W/m2 CLR
16:53 22.4 °C 8.9 °C 1012.1 hPa NW 9.3 km/h 9.3 km/h 42 % 0.0 mm 397.0 W/m2 CLR
16:58 22.3 °C 8.4 °C 1012.1 hPa NNW 11.1 km/h 11.1 km/h 41 % 0.0 mm 380.0 W/m2 CLR
17:03 22.2 °C 8.7 °C 1012.1 hPa North 1.9 km/h   42 % 0.0 mm 362.0 W/m2 CLR
17:08 22.2 °C 8.7 °C 1012.1 hPa North 6.4 km/h 6.4 km/h 42 % 0.0 mm 348.0 W/m2 CLR
17:13 22.2 °C 8.7 °C 1012.1 hPa North 13.0 km/h 13.0 km/h 42 % 0.0 mm 287.0 W/m2 CLR
17:18 21.9 °C 8.4 °C 1012.1 hPa North 9.3 km/h 9.3 km/h 42 % 0.0 mm 267.0 W/m2 CLR
17:23 21.9 °C 8.1 °C 1012.1 hPa North 6.4 km/h 6.4 km/h 41 % 0.0 mm 253.0 W/m2 CLR
17:28 21.9 °C 8.4 °C 1012.1 hPa NNW 11.1 km/h 11.1 km/h 42 % 0.0 mm 241.0 W/m2 CLR
17:33 21.7 °C 8.6 °C 1012.1 hPa Calm     43 % 0.0 mm 220.0 W/m2 CLR
17:38 21.7 °C 8.9 °C 1012.1 hPa NNW 1.9 km/h   44 % 0.0 mm 185.0 W/m2 CLR
17:43 21.6 °C 8.5 °C 1012.4 hPa Calm     43 % 0.0 mm 206.0 W/m2 CLR
17:48 21.7 °C 8.9 °C 1012.4 hPa Calm     44 % 0.0 mm 197.0 W/m2 CLR
17:53 21.7 °C 8.6 °C 1012.1 hPa Calm     43 % 0.0 mm 188.0 W/m2 CLR
17:54 21.7 °C 8.2 °C 1012.1 hPa Calm     42 % 0.0 mm 186.0 W/m2 CLR
17:59 21.8 °C 8.7 °C 1012.4 hPa Calm     43 % 0.0 mm 165.0 W/m2 CLR
18:04 21.9 °C 8.7 °C 1012.4 hPa Calm     43 % 0.0 mm 146.0 W/m2 CLR
18:09 21.9 °C 8.7 °C 1012.4 hPa Calm     43 % 0.0 mm 128.0 W/m2 CLR
18:14 22.0 °C 8.8 °C 1012.4 hPa Calm     43 % 0.0 mm 111.0 W/m2 CLR
18:19 21.9 °C 8.8 °C 1012.4 hPa Calm     43 % 0.0 mm 91.0 W/m2 CLR
18:24 21.8 °C 8.7 °C 1012.1 hPa Calm     43 % 0.0 mm 77.0 W/m2 FEW
18:29 21.8 °C 8.7 °C 1012.4 hPa Calm     43 % 0.0 mm 54.0 W/m2 SCT
18:34 21.8 °C 8.0 °C 1012.1 hPa Calm     41 % 0.0 mm 49.0 W/m2 SCT
18:39 21.8 °C 8.3 °C 1012.4 hPa Calm     42 % 0.0 mm 35.0 W/m2 BKN
18:44 21.6 °C 8.4 °C 1012.4 hPa Calm     43 % 0.0 mm 25.0 W/m2 BKN
18:49 21.2 °C 9.7 °C 1012.4 hPa Calm     48 % 0.0 mm 14.0 W/m2 BKN
18:54 20.7 °C 8.3 °C 1012.4 hPa Calm     45 % 0.0 mm 12.0 W/m2 BKN
18:59 19.9 °C 8.3 °C 1012.4 hPa Calm     47 % 0.0 mm 11.0 W/m2 BKN
19:04 19.5 °C 8.2 °C 1012.4 hPa Calm     48 % 0.0 mm 7.0 W/m2 BKN
19:09 19.3 °C 8.3 °C 1012.4 hPa Calm     49 % 0.0 mm 5.0 W/m2 OVC
19:14 19.0 °C 8.1 °C 1012.4 hPa Calm     49 % 0.0 mm 0.0 W/m2 OVC
19:19 18.8 °C 8.2 °C 1012.4 hPa Calm     50 % 0.0 mm 0.0 W/m2 OVC
19:25 18.6 °C 8.0 °C 1012.4 hPa Calm     50 % 0.0 mm 0.0 W/m2 CLR
19:26 18.6 °C 8.2 °C 1012.4 hPa Calm     51 % 0.0 mm 0.0 W/m2 CLR
19:31 18.1 °C 8.3 °C 1012.4 hPa Calm     53 % 0.0 mm 0.0 W/m2 CLR
19:36 17.6 °C 8.7 °C 1012.4 hPa Calm     56 % 0.0 mm 0.0 W/m2 CLR
19:41 17.1 °C 8.8 °C 1012.8 hPa Calm     58 % 0.0 mm 0.0 W/m2 CLR
19:46 16.7 °C 8.6 °C 1012.8 hPa Calm     59 % 0.0 mm 0.0 W/m2 CLR
19:51 16.3 °C 8.7 °C 1012.8 hPa Calm     61 % 0.0 mm 0.0 W/m2 CLR
19:56 15.8 °C 8.6 °C 1012.8 hPa Calm     62 % 0.0 mm 0.0 W/m2 CLR
20:01 15.5 °C 8.5 °C 1012.8 hPa Calm     63 % 0.0 mm 0.0 W/m2 CLR
20:06 15.1 °C 8.6 °C 1013.1 hPa Calm     65 % 0.0 mm 0.0 W/m2 CLR
20:11 14.8 °C 8.6 °C 1013.1 hPa Calm     66 % 0.0 mm 0.0 W/m2 CLR
20:16 14.7 °C 8.4 °C 1013.1 hPa Calm     66 % 0.0 mm 0.0 W/m2 CLR
20:21 14.4 °C 8.3 °C 1013.1 hPa Calm     67 % 0.0 mm 0.0 W/m2 CLR
20:26 14.2 °C 8.3 °C 1013.1 hPa Calm     68 % 0.0 mm 0.0 W/m2 CLR
20:31 13.9 °C 8.3 °C 1013.1 hPa Calm     69 % 0.0 mm 0.0 W/m2 CLR
20:41 13.4 °C 8.3 °C 1013.4 hPa Calm     71 % 0.0 mm 0.0 W/m2 CLR
20:46 13.3 °C 8.4 °C 1013.4 hPa Calm     72 % 0.0 mm 0.0 W/m2 CLR
20:51 13.2 °C 8.3 °C 1013.4 hPa Calm     72 % 0.0 mm 0.0 W/m2 CLR
20:56 13.1 °C 8.2 °C 1013.4 hPa Calm     72 % 0.0 mm 0.0 W/m2 CLR
21:01 13.0 °C 8.3 °C 1013.4 hPa Calm     73 % 0.0 mm 0.0 W/m2 CLR
21:06 12.9 °C 8.2 °C 1013.8 hPa Calm     73 % 0.0 mm 0.0 W/m2 CLR
21:11 12.7 °C 8.0 °C 1013.8 hPa Calm     73 % 0.0 mm 0.0 W/m2 CLR
21:16 12.5 °C 8.0 °C 1013.8 hPa Calm     74 % 0.0 mm 0.0 W/m2 CLR
21:21 12.3 °C 7.9 °C 1013.8 hPa Calm     75 % 0.0 mm 0.0 W/m2 CLR
21:26 12.1 °C 7.8 °C 1013.8 hPa Calm     75 % 0.0 mm 0.0 W/m2 CLR
21:31 11.9 °C 7.8 °C 1013.8 hPa Calm     76 % 0.0 mm 0.0 W/m2 CLR
21:36 11.8 °C 7.7 °C 1013.8 hPa Calm     76 % 0.0 mm 0.0 W/m2 CLR
21:41 11.7 °C 7.6 °C 1014.1 hPa Calm     76 % 0.0 mm 0.0 W/m2 CLR
21:46 11.7 °C 7.6 °C 1014.1 hPa Calm     76 % 0.0 mm 0.0 W/m2 CLR
21:51 11.6 °C 7.7 °C 1014.1 hPa Calm     77 % 0.0 mm 0.0 W/m2 CLR
21:56 11.5 °C 7.6 °C 1014.1 hPa Calm     77 % 0.0 mm 0.0 W/m2 CLR
22:01 11.4 °C 7.5 °C 1014.1 hPa Calm     77 % 0.0 mm 0.0 W/m2 CLR
22:06 11.2 °C 7.4 °C 1014.1 hPa Calm     78 % 0.0 mm 0.0 W/m2 CLR
22:11 11.1 °C 7.4 °C 1014.1 hPa Calm     78 % 0.0 mm 0.0 W/m2 CLR
22:16 10.9 °C 7.4 °C 1014.1 hPa Calm     79 % 0.0 mm 0.0 W/m2 CLR
22:21 10.8 °C 7.3 °C 1014.1 hPa Calm     79 % 0.0 mm 0.0 W/m2 CLR
22:26 10.7 °C 7.2 °C 1014.1 hPa Calm     79 % 0.0 mm 0.0 W/m2 CLR
22:31 10.7 °C 7.3 °C 1014.1 hPa Calm     80 % 0.0 mm 0.0 W/m2 CLR
22:36 10.6 °C 7.3 °C 1014.1 hPa Calm     80 % 0.0 mm 0.0 W/m2 CLR
22:41 10.6 °C 7.2 °C 1014.1 hPa Calm     80 % 0.0 mm 0.0 W/m2 CLR
22:46 10.5 °C 7.2 °C 1014.1 hPa Calm     80 % 0.0 mm 0.0 W/m2 CLR
22:51 10.4 °C 7.2 °C 1014.4 hPa Calm     80 % 0.0 mm 0.0 W/m2 CLR
22:56 10.3 °C 7.1 °C 1014.1 hPa Calm     80 % 0.0 mm 0.0 W/m2 CLR
23:01 10.3 °C 7.0 °C 1014.1 hPa Calm     80 % 0.0 mm 0.0 W/m2 CLR
23:11 10.1 °C 6.8 °C 1014.4 hPa Calm     80 % 0.0 mm 0.0 W/m2 CLR
23:16 10.0 °C 6.9 °C 1014.4 hPa Calm     81 % 0.0 mm 0.0 W/m2 CLR
23:21 9.9 °C 6.8 °C 1014.4 hPa Calm     81 % 0.0 mm 0.0 W/m2 CLR
23:26 9.8 °C 6.7 °C 1014.4 hPa Calm     81 % 0.0 mm 0.0 W/m2 CLR
23:31 9.8 °C 6.8 °C 1014.4 hPa Calm     82 % 0.0 mm 0.0 W/m2 CLR
23:36 9.8 °C 6.9 °C 1014.4 hPa Calm     82 % 0.0 mm 0.0 W/m2 CLR
23:41 9.8 °C 6.9 °C 1014.4 hPa Calm     82 % 0.0 mm 0.0 W/m2 CLR
23:46 9.8 °C 6.9 °C 1014.1 hPa Calm     82 % 0.0 mm 0.0 W/m2 CLR
23:51 9.9 °C 6.9 °C 1014.1 hPa Calm     82 % 0.0 mm 0.0 W/m2 CLR
23:56 10.0 °C 6.9 °C 1014.1 hPa Calm     81 % 0.0 mm 0.0 W/m2 CLR
Lo Temps de Massalio
Compliments of Weather Underground - 1.25 mb